createdAt,value
2022-08-18T00:02:30.361Z,21.60
2022-08-18T00:05:14.834Z,21.58
2022-08-18T00:07:59.359Z,21.55
2022-08-18T00:10:28.472Z,21.52
2022-08-18T00:13:01.289Z,21.47
2022-08-18T00:15:29.708Z,21.34
2022-08-18T00:18:22.763Z,21.25
2022-08-18T00:21:38.858Z,21.06
2022-08-18T00:24:06.416Z,20.75
2022-08-18T00:26:37.100Z,20.48
2022-08-18T00:29:15.741Z,20.43
2022-08-18T00:31:43.042Z,20.58
2022-08-18T00:34:16.214Z,20.51
2022-08-18T00:36:58.332Z,20.22
2022-08-18T00:39:27.435Z,20.18
2022-08-18T00:42:30.812Z,20.30
2022-08-18T00:45:25.587Z,20.20
2022-08-18T00:48:06.080Z,20.51
2022-08-18T00:50:54.593Z,20.69
2022-08-18T00:53:44.418Z,20.87
2022-08-18T00:56:30.807Z,20.88
2022-08-18T00:59:09.090Z,20.87
2022-08-18T01:01:38.328Z,20.90
2022-08-18T01:04:11.781Z,20.92
2022-08-18T01:07:00.906Z,20.95
2022-08-18T01:09:29.992Z,20.98
2022-08-18T01:11:57.233Z,20.97
2022-08-18T01:14:26.886Z,21.03
2022-08-18T01:17:32.193Z,21.02
2022-08-18T01:20:39.200Z,21.00
2022-08-18T01:23:23.841Z,20.79
2022-08-18T01:26:02.793Z,20.60
2022-08-18T01:28:54.392Z,20.70
2022-08-18T01:31:54.544Z,20.62
2022-08-18T01:34:40.839Z,20.04
2022-08-18T01:37:18.393Z,19.60
2022-08-18T01:41:24.376Z,19.68
2022-08-18T01:42:52.499Z,19.84
2022-08-18T01:45:43.833Z,19.82
2022-08-18T01:48:37.595Z,19.98
2022-08-18T01:51:07.379Z,20.04
2022-08-18T01:53:43.761Z,20.07
2022-08-18T01:56:23.117Z,19.92
2022-08-18T01:58:51.219Z,20.04
2022-08-18T02:01:36.688Z,20.20
2022-08-18T02:04:33.946Z,20.23
2022-08-18T02:07:17.463Z,20.19
2022-08-18T02:09:59.985Z,20.21
2022-08-18T02:12:33.256Z,20.22
2022-08-18T02:15:08.366Z,20.18
2022-08-18T02:17:39.372Z,20.20
2022-08-18T02:20:18.751Z,20.18
2022-08-18T02:22:49.563Z,20.12
2022-08-18T02:25:24.929Z,19.78
2022-08-18T02:27:58.851Z,19.71
2022-08-18T02:30:27.156Z,19.38
2022-08-18T02:32:58.227Z,19.28
2022-08-18T02:35:25.770Z,19.25
2022-08-18T02:38:07.640Z,19.43
2022-08-18T02:40:36.103Z,19.49
2022-08-18T02:43:09.508Z,19.54
2022-08-18T02:45:42.628Z,19.61
2022-08-18T02:48:32.033Z,19.59
2022-08-18T02:51:15.325Z,19.55
2022-08-18T02:53:45.829Z,19.60
2022-08-18T02:56:40.193Z,19.60
2022-08-18T02:59:10.503Z,19.50
2022-08-18T03:01:46.878Z,19.58
2022-08-18T03:04:38.717Z,19.56
2022-08-18T03:07:08.526Z,19.58
2022-08-18T03:09:42.828Z,19.59
2022-08-18T03:12:10.642Z,19.55
2022-08-18T03:14:40.437Z,19.57
2022-08-18T03:17:09.425Z,19.56
2022-08-18T03:19:37.209Z,19.55
2022-08-18T03:22:16.075Z,19.59
2022-08-18T03:25:16.276Z,19.56
2022-08-18T03:27:43.283Z,19.59
2022-08-18T03:30:11.946Z,19.58
2022-08-18T03:32:41.071Z,19.51
2022-08-18T03:35:18.933Z,19.56
2022-08-18T03:37:46.115Z,19.52
2022-08-18T03:40:25.367Z,19.46
2022-08-18T03:42:52.481Z,19.25
2022-08-18T03:45:32.349Z,19.30
2022-08-18T03:48:28.247Z,19.27
2022-08-18T03:51:27.001Z,18.70
2022-08-18T03:54:02.263Z,18.32
2022-08-18T03:56:41.419Z,18.38
2022-08-18T03:59:23.942Z,18.61
2022-08-18T04:01:59.565Z,18.76
2022-08-18T04:04:36.060Z,18.93
2022-08-18T04:07:17.622Z,19.08
2022-08-18T04:09:50.880Z,19.14
2022-08-18T04:12:41.300Z,19.25
2022-08-18T04:15:09.569Z,19.28
2022-08-18T04:17:56.290Z,19.34
2022-08-18T04:20:38.941Z,19.47
2022-08-18T04:23:43.643Z,19.53
2022-08-18T04:26:24.468Z,19.60
2022-08-18T04:28:51.816Z,19.63
2022-08-18T04:31:25.030Z,19.72
2022-08-18T04:33:53.306Z,19.74
2022-08-18T04:36:57.454Z,19.79
2022-08-18T04:39:26.877Z,19.94
2022-08-18T04:42:01.751Z,20.02
2022-08-18T04:44:29.893Z,20.09
2022-08-18T04:47:01.064Z,20.14
2022-08-18T04:49:32.334Z,20.29
2022-08-18T04:52:40.563Z,20.36
2022-08-18T04:55:30.683Z,20.43
2022-08-18T04:58:01.106Z,20.47
2022-08-18T05:00:28.162Z,20.56
2022-08-18T05:03:51.534Z,20.71
2022-08-18T05:06:30.970Z,20.81
2022-08-18T05:09:07.568Z,20.87
2022-08-18T05:11:58.106Z,20.88
2022-08-18T05:14:25.546Z,20.96
2022-08-18T05:16:58.941Z,21.06
2022-08-18T05:19:36.045Z,21.17
2022-08-18T05:22:27.848Z,21.30
2022-08-18T05:27:56.464Z,21.26
2022-08-18T05:30:24.750Z,21.28
2022-08-18T05:33:16.093Z,21.45
2022-08-18T05:36:03.675Z,21.61
2022-08-18T05:38:59.921Z,21.89
2022-08-18T05:41:34.156Z,22.02
2022-08-18T05:44:07.875Z,21.98
2022-08-18T05:46:50.800Z,22.16
2022-08-18T05:49:21.252Z,22.38
2022-08-18T05:52:03.466Z,22.63
2022-08-18T05:55:01.628Z,22.64
2022-08-18T05:57:38.514Z,22.72
2022-08-18T06:00:09.254Z,22.84
2022-08-18T06:02:51.535Z,23.09
2022-08-18T06:05:28.956Z,23.33
2022-08-18T06:08:17.165Z,23.60
2022-08-18T06:10:52.235Z,23.84
2022-08-18T06:14:01.744Z,24.10
2022-08-18T06:17:13.323Z,24.35
2022-08-18T06:20:35.133Z,24.56
2022-08-18T06:23:41.825Z,24.76
2022-08-18T06:26:59.664Z,24.91
2022-08-18T06:30:13.200Z,25.08
2022-08-18T06:33:04.852Z,25.15
2022-08-18T06:35:40.871Z,25.24
2022-08-18T06:38:46.166Z,25.41
2022-08-18T06:41:42.874Z,25.56
2022-08-18T06:44:45.856Z,25.74
2022-08-18T06:47:32.854Z,26.00
2022-08-18T06:50:44.803Z,26.11
2022-08-18T06:53:26.787Z,26.21
2022-08-18T06:55:57.225Z,26.36
2022-08-18T06:58:30.923Z,26.44
2022-08-18T07:01:37.503Z,26.48
2022-08-18T07:04:08.191Z,26.66
2022-08-18T07:06:39.401Z,26.72
2022-08-18T07:09:24.408Z,26.77
2022-08-18T07:12:09.399Z,26.82
2022-08-18T07:14:50.851Z,26.87
2022-08-18T07:17:53.139Z,26.92
2022-08-18T07:20:26.060Z,26.84
2022-08-18T07:23:08.107Z,27.01
2022-08-18T07:25:45.790Z,27.14
2022-08-18T07:28:50.181Z,27.11
2022-08-18T07:31:26.717Z,27.15
2022-08-18T07:34:12.729Z,27.41
2022-08-18T07:37:01.845Z,27.56
2022-08-18T07:39:48.377Z,27.86
2022-08-18T07:43:02.108Z,28.13
2022-08-18T07:45:38.661Z,28.34
2022-08-18T07:51:20.021Z,28.52
2022-08-18T07:54:05.361Z,28.63
2022-08-18T07:56:56.285Z,28.67
2022-08-18T07:59:33.422Z,28.80
2022-08-18T08:02:18.872Z,28.96
2022-08-18T08:05:08.807Z,29.08
2022-08-18T08:07:44.135Z,29.24
2022-08-18T08:10:39.969Z,29.17
2022-08-18T08:13:51.753Z,29.28
2022-08-18T08:16:46.566Z,29.51
2022-08-18T08:19:49.393Z,29.75
2022-08-18T08:22:29.766Z,29.79
2022-08-18T08:25:46.450Z,29.96
2022-08-18T08:28:43.281Z,30.13
2022-08-18T08:31:54.818Z,30.33
2022-08-18T08:34:54.789Z,30.53
2022-08-18T08:37:33.892Z,30.70
2022-08-18T08:40:03.082Z,30.77
2022-08-18T08:42:45.978Z,30.91
2022-08-18T08:45:22.252Z,31.05
2022-08-18T08:48:11.678Z,31.20
2022-08-18T08:51:33.763Z,31.35
2022-08-18T08:54:23.855Z,31.50
2022-08-18T08:57:01.778Z,31.61
2022-08-18T08:59:29.946Z,31.59
2022-08-18T09:02:48.923Z,31.71
2022-08-18T09:05:45.388Z,31.79
2022-08-18T09:08:41.631Z,31.64
2022-08-18T09:11:27.134Z,31.81
2022-08-18T09:14:07.330Z,31.99
2022-08-18T09:16:59.750Z,32.21
2022-08-18T09:20:09.291Z,32.34
2022-08-18T09:22:52.737Z,32.62
2022-08-18T09:25:48.506Z,32.84
2022-08-18T09:28:23.923Z,33.03
2022-08-18T09:31:10.152Z,33.18
2022-08-18T09:33:46.012Z,33.38
2022-08-18T09:36:44.515Z,33.53
2022-08-18T09:39:59.073Z,33.56
2022-08-18T09:42:50.655Z,33.80
2022-08-18T09:45:33.337Z,33.91
2022-08-18T09:48:30.825Z,34.05
2022-08-18T09:51:32.930Z,33.57
2022-08-18T09:54:32.191Z,33.14
2022-08-18T09:57:19.671Z,33.16
2022-08-18T10:02:38.688Z,32.74
2022-08-18T10:05:20.314Z,32.44
2022-08-18T10:08:21.284Z,31.75
2022-08-18T10:11:40.935Z,31.51
2022-08-18T10:14:45.698Z,32.02
2022-08-18T10:17:35.199Z,32.24
2022-08-18T10:20:26.187Z,32.21
2022-08-18T10:23:01.337Z,32.79
2022-08-18T10:25:48.422Z,33.37
2022-08-18T10:28:57.491Z,34.09
2022-08-18T10:31:27.313Z,34.79
2022-08-18T10:34:16.337Z,34.58
2022-08-18T10:37:19.525Z,34.20
2022-08-18T10:40:02.111Z,34.66
2022-08-18T10:42:39.243Z,35.17
2022-08-18T10:46:24.438Z,35.63
2022-08-18T10:49:21.790Z,36.18
2022-08-18T10:52:11.060Z,36.15
2022-08-18T10:55:06.259Z,36.63
2022-08-18T10:58:01.821Z,37.21
2022-08-18T11:01:01.259Z,37.33
2022-08-18T11:03:55.962Z,37.12
2022-08-18T11:06:26.316Z,37.54
2022-08-18T11:09:04.249Z,38.01
2022-08-18T11:12:02.125Z,38.32
2022-08-18T11:14:56.282Z,38.69
2022-08-18T11:18:10.402Z,38.66
2022-08-18T11:20:42.994Z,38.86
2022-08-18T11:23:17.286Z,39.14
2022-08-18T11:26:18.360Z,39.06
2022-08-18T11:28:49.871Z,39.17
2022-08-18T11:31:19.458Z,39.01
2022-08-18T11:33:53.084Z,38.67
2022-08-18T11:36:31.099Z,37.98
2022-08-18T11:39:01.356Z,38.47
2022-08-18T11:41:48.007Z,38.88
2022-08-18T11:44:25.135Z,39.33
2022-08-18T11:47:09.495Z,39.83
2022-08-18T11:50:08.965Z,40.16
2022-08-18T11:53:13.784Z,40.59
2022-08-18T11:56:03.398Z,41.02
2022-08-18T11:58:59.990Z,41.33
2022-08-18T12:01:57.147Z,41.62
2022-08-18T12:04:40.200Z,41.82
2022-08-18T12:07:51.109Z,41.99
2022-08-18T12:10:47.537Z,41.76
2022-08-18T12:13:25.764Z,41.50
2022-08-18T12:16:35.366Z,41.72
2022-08-18T12:19:15.335Z,42.05
2022-08-18T12:22:11.933Z,42.35
2022-08-18T12:24:40.424Z,42.43
2022-08-18T12:27:21.277Z,41.63
2022-08-18T12:32:56.092Z,41.93
2022-08-18T12:35:30.344Z,42.03
2022-08-18T12:38:00.359Z,42.27
2022-08-18T12:40:43.463Z,42.49
2022-08-18T12:43:11.242Z,42.20
2022-08-18T12:45:41.656Z,42.52
2022-08-18T12:48:26.988Z,42.03
2022-08-18T12:50:58.415Z,40.60
2022-08-18T12:53:59.339Z,39.83
2022-08-18T12:56:36.340Z,39.42
2022-08-18T12:59:07.170Z,39.17
2022-08-18T13:01:40.461Z,39.70
2022-08-18T13:04:26.950Z,38.69
2022-08-18T13:07:00.545Z,38.42
2022-08-18T13:09:52.856Z,38.58
2022-08-18T13:12:27.335Z,37.59
2022-08-18T13:14:55.448Z,37.56
2022-08-18T13:17:33.532Z,37.48
2022-08-18T13:20:09.889Z,37.73
2022-08-18T13:22:40.643Z,38.49
2022-08-18T13:25:28.858Z,38.54
2022-08-18T13:28:15.468Z,39.87
2022-08-18T13:30:46.817Z,38.82
2022-08-18T13:33:53.529Z,37.98
2022-08-18T13:36:02.006Z,38.56
2022-08-18T13:38:30.088Z,39.04
2022-08-18T13:41:06.278Z,38.76
2022-08-18T13:43:39.175Z,39.07
2022-08-18T13:46:08.213Z,38.99
2022-08-18T13:48:38.155Z,38.23
2022-08-18T13:51:11.379Z,37.24
2022-08-18T13:53:50.963Z,37.72
2022-08-18T13:56:31.245Z,37.70
2022-08-18T13:58:59.034Z,38.32
2022-08-18T14:01:44.528Z,39.04
2022-08-18T14:04:15.102Z,38.07
2022-08-18T14:06:56.436Z,37.43
2022-08-18T14:09:42.481Z,36.08
2022-08-18T14:12:29.620Z,36.41
2022-08-18T14:15:00.856Z,36.68
2022-08-18T14:17:51.669Z,37.69
2022-08-18T14:20:48.148Z,37.86
2022-08-18T14:23:39.862Z,38.18
2022-08-18T14:26:45.997Z,38.56
2022-08-18T14:29:47.015Z,38.65
2022-08-18T14:32:07.759Z,38.69
2022-08-18T14:34:41.453Z,37.59
2022-08-18T14:37:43.028Z,37.51
2022-08-18T14:40:20.467Z,37.99
2022-08-18T14:42:54.497Z,37.81
2022-08-18T14:45:27.625Z,38.03
2022-08-18T14:48:06.695Z,36.98
2022-08-18T14:50:44.847Z,36.72
2022-08-18T14:53:37.174Z,37.17
2022-08-18T14:56:08.749Z,37.47
2022-08-18T14:58:37.945Z,37.19
2022-08-18T15:01:10.375Z,37.82
2022-08-18T15:03:39.812Z,37.61
2022-08-18T15:06:08.325Z,37.47
2022-08-18T15:08:49.071Z,38.13
2022-08-18T15:11:24.915Z,37.47
2022-08-18T15:13:55.146Z,37.11
2022-08-18T15:16:31.532Z,37.63
2022-08-18T15:19:59.858Z,38.30
2022-08-18T15:22:29.178Z,38.19
2022-08-18T15:25:26.320Z,38.34
2022-08-18T15:27:56.340Z,38.59
2022-08-18T15:30:26.713Z,38.14
2022-08-18T15:32:59.368Z,37.57
2022-08-18T15:35:35.714Z,37.30
2022-08-18T15:38:07.399Z,36.46
2022-08-18T15:40:41.616Z,36.32
2022-08-18T15:43:12.916Z,36.62
2022-08-18T15:45:56.473Z,36.61
2022-08-18T15:48:28.865Z,36.64
2022-08-18T15:51:11.747Z,36.63
2022-08-18T15:53:57.903Z,35.88
2022-08-18T15:56:43.339Z,36.51
2022-08-18T15:59:12.840Z,36.72
2022-08-18T16:01:43.438Z,36.87
2022-08-18T16:04:24.284Z,37.00
2022-08-18T16:06:52.526Z,36.61
2022-08-18T16:09:33.995Z,36.34
2022-08-18T16:12:50.639Z,36.25
2022-08-18T16:15:23.466Z,36.16
2022-08-18T16:18:00.194Z,36.26
2022-08-18T16:20:29.670Z,36.09
2022-08-18T16:22:59.185Z,35.47
2022-08-18T16:25:28.997Z,34.89
2022-08-18T16:28:13.645Z,34.86
2022-08-18T16:30:47.466Z,34.99
2022-08-18T16:33:18.555Z,34.88
2022-08-18T16:36:25.649Z,34.87
2022-08-18T16:38:53.955Z,34.58
2022-08-18T16:41:29.636Z,34.90
2022-08-18T16:43:58.940Z,34.43
2022-08-18T16:46:27.864Z,34.26
2022-08-18T16:49:11.173Z,34.16
2022-08-18T16:51:45.002Z,34.12
2022-08-18T16:54:14.666Z,33.84
2022-08-18T16:57:10.828Z,33.53
2022-08-18T16:59:57.732Z,33.49
2022-08-18T17:02:47.111Z,33.33
2022-08-18T17:05:24.232Z,33.36
2022-08-18T17:07:52.334Z,33.23
2022-08-18T17:13:40.805Z,33.32
2022-08-18T17:16:16.911Z,33.38
2022-08-18T17:18:46.050Z,33.33
2022-08-18T17:21:50.425Z,33.31
2022-08-18T17:24:31.721Z,33.26
2022-08-18T17:27:27.121Z,33.22
2022-08-18T17:30:40.017Z,33.12
2022-08-18T17:33:16.129Z,32.95
2022-08-18T17:35:56.811Z,32.89
2022-08-18T17:38:49.713Z,32.71
2022-08-18T17:41:25.602Z,32.61
2022-08-18T17:43:56.548Z,32.51
2022-08-18T17:46:37.699Z,32.19
2022-08-18T17:49:18.170Z,32.25
2022-08-18T17:51:52.607Z,32.12
2022-08-18T17:54:46.558Z,31.99
2022-08-18T17:57:33.751Z,31.58
2022-08-18T18:00:14.191Z,31.29
2022-08-18T18:02:45.481Z,31.08
2022-08-18T18:05:16.270Z,31.05
2022-08-18T18:07:52.252Z,30.93
2022-08-18T18:10:56.491Z,30.80
2022-08-18T18:13:37.367Z,30.59
2022-08-18T18:16:26.251Z,30.59
2022-08-18T18:19:06.560Z,30.44
2022-08-18T18:21:58.947Z,30.42
2022-08-18T18:24:32.598Z,30.37
2022-08-18T18:27:22.748Z,30.33
2022-08-18T18:30:07.438Z,30.23
2022-08-18T18:32:59.438Z,30.12
2022-08-18T18:35:34.285Z,30.11
2022-08-18T18:38:23.829Z,30.13
2022-08-18T18:41:38.025Z,30.06
2022-08-18T18:44:10.335Z,30.03
2022-08-18T18:46:53.587Z,29.98
2022-08-18T18:49:42.559Z,29.94
2022-08-18T18:52:41.442Z,29.86
2022-08-18T18:55:17.641Z,29.78
2022-08-18T18:58:14.614Z,29.74
2022-08-18T19:00:59.704Z,29.63
2022-08-18T19:04:07.518Z,29.47
2022-08-18T19:06:48.658Z,29.36
2022-08-18T19:09:30.058Z,29.27
2022-08-18T19:12:43.602Z,29.15
2022-08-18T19:15:19.806Z,29.11
2022-08-18T19:18:02.423Z,29.07
2022-08-18T19:20:37.263Z,29.01
2022-08-18T19:23:06.848Z,28.84
2022-08-18T19:25:51.535Z,28.73
2022-08-18T19:28:36.997Z,28.73
2022-08-18T19:31:40.091Z,28.55
2022-08-18T19:34:19.057Z,28.55
2022-08-18T19:37:14.930Z,28.43
2022-08-18T19:40:05.796Z,28.46
2022-08-18T19:42:45.534Z,28.32
2022-08-18T19:45:45.804Z,28.13
2022-08-18T19:48:39.461Z,28.17
2022-08-18T19:51:36.370Z,28.18
2022-08-18T19:54:40.540Z,28.23
2022-08-18T19:57:26.181Z,28.04
2022-08-18T20:00:31.191Z,27.97
2022-08-18T20:03:35.431Z,27.89
2022-08-18T20:06:27.637Z,27.73
2022-08-18T20:09:02.596Z,27.74
2022-08-18T20:11:49.797Z,27.65
2022-08-18T20:14:19.300Z,27.70
2022-08-18T20:17:23.017Z,27.70
2022-08-18T20:19:59.766Z,27.58
2022-08-18T20:22:43.893Z,27.41
2022-08-18T20:25:20.305Z,27.31
2022-08-18T20:28:13.308Z,27.39
2022-08-18T20:31:12.852Z,27.28
2022-08-18T20:34:04.404Z,27.33
2022-08-18T20:36:37.062Z,27.21
2022-08-18T20:39:34.671Z,27.16
2022-08-18T20:42:07.829Z,27.17
2022-08-18T20:44:45.623Z,27.16
2022-08-18T20:47:35.334Z,27.13
2022-08-18T20:50:40.549Z,27.08
2022-08-18T20:53:35.024Z,27.04
2022-08-18T20:56:43.018Z,27.01
2022-08-18T20:59:23.352Z,26.94
2022-08-18T21:01:59.415Z,26.67
2022-08-18T21:04:50.695Z,26.83
2022-08-18T21:07:40.317Z,26.79
2022-08-18T21:10:23.751Z,26.75
2022-08-18T21:13:04.426Z,26.68
2022-08-18T21:15:38.344Z,26.62
2022-08-18T21:18:25.489Z,26.70
2022-08-18T21:21:27.108Z,26.64
2022-08-18T21:24:00.255Z,26.64
2022-08-18T21:26:48.465Z,26.55
2022-08-18T21:29:16.887Z,26.58
2022-08-18T21:31:48.316Z,26.59
2022-08-18T21:34:34.405Z,26.55
2022-08-18T21:37:08.296Z,26.54
2022-08-18T21:39:59.918Z,26.51
2022-08-18T21:43:05.599Z,26.49
2022-08-18T21:45:59.686Z,26.41
2022-08-18T21:48:31.859Z,26.46
2022-08-18T21:51:02.658Z,26.52
2022-08-18T21:53:41.870Z,26.51
2022-08-18T21:56:29.784Z,26.56
2022-08-18T21:59:17.439Z,26.54
2022-08-18T22:01:57.284Z,26.61
2022-08-18T22:04:47.735Z,26.52
2022-08-18T22:07:35.691Z,26.47
2022-08-18T22:10:45.671Z,26.48
2022-08-18T22:13:41.621Z,26.41
2022-08-18T22:16:30.482Z,26.44
2022-08-18T22:19:19.131Z,26.36
2022-08-18T22:22:29.473Z,26.46
2022-08-18T22:25:03.127Z,26.44
2022-08-18T22:27:31.469Z,26.45
2022-08-18T22:30:04.456Z,26.48
2022-08-18T22:32:46.136Z,26.39
2022-08-18T22:35:35.572Z,26.35
2022-08-18T22:38:21.666Z,26.35
2022-08-18T22:41:26.350Z,26.28
2022-08-18T22:43:54.642Z,26.26
2022-08-18T22:46:25.426Z,26.18
2022-08-18T22:48:56.487Z,26.04
2022-08-18T22:51:27.156Z,25.78
2022-08-18T22:54:02.642Z,25.99
2022-08-18T22:56:34.303Z,25.75
2022-08-18T22:59:23.702Z,25.68
2022-08-18T23:01:58.620Z,25.68
2022-08-18T23:04:27.486Z,25.74
2022-08-18T23:06:56.576Z,25.73
2022-08-18T23:09:40.869Z,25.69
2022-08-18T23:12:14.025Z,25.71
2022-08-18T23:14:46.878Z,25.67
2022-08-18T23:17:38.652Z,25.68
2022-08-18T23:20:18.205Z,25.62
2022-08-18T23:23:01.754Z,25.59
2022-08-18T23:25:42.287Z,25.45
2022-08-18T23:28:12.282Z,25.40
2022-08-18T23:30:49.542Z,25.37
2022-08-18T23:33:21.921Z,25.38
2022-08-18T23:35:58.250Z,25.26
2022-08-18T23:38:31.712Z,25.23
2022-08-18T23:41:21.894Z,25.21
2022-08-18T23:43:51.983Z,25.10
2022-08-18T23:46:32.207Z,25.03
2022-08-18T23:49:01.415Z,25.09
2022-08-18T23:51:44.521Z,25.04
2022-08-18T23:54:32.318Z,25.19
2022-08-18T23:57:00.136Z,25.20
2022-08-18T23:59:43.532Z,25.12
